Terminal Aerodrome Forecast
Issued by NWS

Home | Current Version | Previous Version | Text Only | Print | Product List | Glossary On
Versions: 1 2 3 4 5 6 7 8 9 10 11 12 13 14 15 16 17
000
FTUS46 KEKA 181443 AAB
TAFUKI
TAF AMD
KUKI 181443Z 1815/1912 16008KT P6SM BKN035
     FM182000 15008KT P6SM VCSH BKN040
     FM190800 00000KT P6SM FEW250=

USA.gov is the U.S. government's official web portal to all federal, state and local government web resources and services.